sensor_id;sensor_type;location;lat;lon;timestamp;pressure;altitude;pressure_sealevel;temperature;humidity
36598;BME280;22607;49.550;11.940;2023-01-15T00:02:07;95759.06;;;6.60;100.00
36598;BME280;22607;49.550;11.940;2023-01-15T00:04:33;95752.63;;;6.71;100.00
36598;BME280;22607;49.550;11.940;2023-01-15T00:07:01;95753.09;;;6.75;100.00
36598;BME280;22607;49.550;11.940;2023-01-15T00:09:27;95755.69;;;6.75;100.00
36598;BME280;22607;49.550;11.940;2023-01-15T00:11:53;95752.69;;;6.63;100.00
36598;BME280;22607;49.550;11.940;2023-01-15T00:14:20;95741.97;;;6.57;100.00
36598;BME280;22607;49.550;11.940;2023-01-15T00:16:49;95743.53;;;6.67;100.00
36598;BME280;22607;49.550;11.940;2023-01-15T00:19:15;95739.41;;;6.73;100.00
36598;BME280;22607;49.550;11.940;2023-01-15T00:21:42;95742.47;;;6.76;100.00
36598;BME280;22607;49.550;11.940;2023-01-15T00:24:08;95733.81;;;6.76;100.00
36598;BME280;22607;49.550;11.940;2023-01-15T00:26:59;95724.06;;;6.93;100.00
36598;BME280;22607;49.550;11.940;2023-01-15T00:29:44;95723.03;;;6.79;100.00
36598;BME280;22607;49.550;11.940;2023-01-15T00:32:10;95715.22;;;6.79;100.00
36598;BME280;22607;49.550;11.940;2023-01-15T00:34:37;95718.72;;;6.86;100.00
36598;BME280;22607;49.550;11.940;2023-01-15T00:37:03;95713.09;;;6.98;100.00
36598;BME280;22607;49.550;11.940;2023-01-15T00:39:30;95710.22;;;6.92;100.00
36598;BME280;22607;49.550;11.940;2023-01-15T00:41:56;95703.00;;;6.94;100.00
36598;BME280;22607;49.550;11.940;2023-01-15T00:44:22;95691.41;;;6.97;100.00
36598;BME280;22607;49.550;11.940;2023-01-15T00:46:49;95694.94;;;7.04;100.00
36598;BME280;22607;49.550;11.940;2023-01-15T00:49:15;95693.50;;;7.02;100.00
36598;BME280;22607;49.550;11.940;2023-01-15T00:51:43;95685.66;;;7.02;100.00
36598;BME280;22607;49.550;11.940;2023-01-15T00:54:09;95687.28;;;7.03;100.00
36598;BME280;22607;49.550;11.940;2023-01-15T00:56:36;95686.44;;;7.02;100.00
36598;BME280;22607;49.550;11.940;2023-01-15T00:59:03;95687.72;;;7.06;100.00
36598;BME280;22607;49.550;11.940;2023-01-15T01:01:30;95687.72;;;7.06;100.00
36598;BME280;22607;49.550;11.940;2023-01-15T01:03:56;95683.94;;;7.09;100.00
36598;BME280;22607;49.550;11.940;2023-01-15T01:06:23;95682.94;;;6.95;100.00
36598;BME280;22607;49.550;11.940;2023-01-15T01:08:50;95683.06;;;7.17;100.00
36598;BME280;22607;49.550;11.940;2023-01-15T01:11:17;95682.69;;;7.20;100.00
36598;BME280;22607;49.550;11.940;2023-01-15T01:13:44;95682.69;;;7.20;100.00
36598;BME280;22607;49.550;11.940;2023-01-15T01:16:20;95676.94;;;7.40;100.00
36598;BME280;22607;49.550;11.940;2023-01-15T01:18:46;95669.66;;;7.35;100.00
36598;BME280;22607;49.550;11.940;2023-01-15T01:21:20;95672.34;;;7.42;100.00
36598;BME280;22607;49.550;11.940;2023-01-15T01:23:47;95660.38;;;7.32;100.00
36598;BME280;22607;49.550;11.940;2023-01-15T01:26:14;95662.69;;;7.42;100.00
36598;BME280;22607;49.550;11.940;2023-01-15T01:28:40;95659.16;;;7.65;100.00
36598;BME280;22607;49.550;11.940;2023-01-15T01:31:07;95660.16;;;7.49;100.00
36598;BME280;22607;49.550;11.940;2023-01-15T01:33:34;95653.06;;;7.58;100.00
36598;BME280;22607;49.550;11.940;2023-01-15T01:36:00;95653.16;;;7.34;100.00
36598;BME280;22607;49.550;11.940;2023-01-15T01:38:27;95645.22;;;7.43;100.00
36598;BME280;22607;49.550;11.940;2023-01-15T01:40:53;95643.63;;;7.42;100.00
36598;BME280;22607;49.550;11.940;2023-01-15T01:43:22;95636.75;;;7.93;100.00
36598;BME280;22607;49.550;11.940;2023-01-15T01:45:55;95642.78;;;7.56;100.00
36598;BME280;22607;49.550;11.940;2023-01-15T01:48:26;95632.38;;;7.78;100.00
36598;BME280;22607;49.550;11.940;2023-01-15T01:50:54;95635.25;;;7.83;100.00
36598;BME280;22607;49.550;11.940;2023-01-15T01:53:25;95635.84;;;7.64;100.00
36598;BME280;22607;49.550;11.940;2023-01-15T01:55:53;95635.25;;;7.83;100.00
36598;BME280;22607;49.550;11.940;2023-01-15T01:58:20;95624.06;;;8.11;100.00
36598;BME280;22607;49.550;11.940;2023-01-15T02:00:48;95628.06;;;7.70;100.00
36598;BME280;22607;49.550;11.940;2023-01-15T02:03:16;95627.00;;;7.65;100.00
36598;BME280;22607;49.550;11.940;2023-01-15T02:05:45;95620.69;;;7.74;100.00
36598;BME280;22607;49.550;11.940;2023-01-15T02:08:12;95616.91;;;7.61;100.00
36598;BME280;22607;49.550;11.940;2023-01-15T02:10:40;95602.75;;;7.71;100.00
36598;BME280;22607;49.550;11.940;2023-01-15T02:13:18;95598.91;;;7.88;100.00
36598;BME280;22607;49.550;11.940;2023-01-15T02:15:56;95594.47;;;7.67;100.00
36598;BME280;22607;49.550;11.940;2023-01-15T02:18:29;95581.88;;;7.93;100.00
36598;BME280;22607;49.550;11.940;2023-01-15T02:21:00;95583.97;;;7.82;100.00
36598;BME280;22607;49.550;11.940;2023-01-15T02:23:32;95575.28;;;7.97;100.00
36598;BME280;22607;49.550;11.940;2023-01-15T02:26:23;95574.63;;;7.95;100.00
36598;BME280;22607;49.550;11.940;2023-01-15T02:28:59;95571.28;;;7.79;100.00
36598;BME280;22607;49.550;11.940;2023-01-15T02:31:28;95567.75;;;7.72;100.00
36598;BME280;22607;49.550;11.940;2023-01-15T02:36:32;95566.03;;;7.79;100.00
36598;BME280;22607;49.550;11.940;2023-01-15T02:39:01;95559.06;;;7.65;100.00
36598;BME280;22607;49.550;11.940;2023-01-15T02:41:31;95568.03;;;7.99;100.00
36598;BME280;22607;49.550;11.940;2023-01-15T02:44:00;95559.41;;;7.98;100.00
36598;BME280;22607;49.550;11.940;2023-01-15T02:46:32;95556.53;;;7.71;100.00
36598;BME280;22607;49.550;11.940;2023-01-15T02:49:00;95556.84;;;7.83;100.00
36598;BME280;22607;49.550;11.940;2023-01-15T02:51:29;95557.78;;;7.75;100.00
36598;BME280;22607;49.550;11.940;2023-01-15T02:53:57;95559.53;;;7.90;100.00
36598;BME280;22607;49.550;11.940;2023-01-15T02:56:27;95551.28;;;7.71;100.00
36598;BME280;22607;49.550;11.940;2023-01-15T02:58:56;95560.19;;;7.77;100.00
36598;BME280;22607;49.550;11.940;2023-01-15T03:01:31;95553.84;;;7.65;100.00
36598;BME280;22607;49.550;11.940;2023-01-15T03:04:09;95552.84;;;7.87;100.00
36598;BME280;22607;49.550;11.940;2023-01-15T03:06:43;95554.28;;;7.90;100.00
36598;BME280;22607;49.550;11.940;2023-01-15T03:09:11;95546.69;;;7.73;100.00
36598;BME280;22607;49.550;11.940;2023-01-15T03:11:42;95536.16;;;7.88;100.00
36598;BME280;22607;49.550;11.940;2023-01-15T03:14:18;95535.97;;;8.12;100.00
36598;BME280;22607;49.550;11.940;2023-01-15T03:16:52;95540.34;;;7.83;100.00
36598;BME280;22607;49.550;11.940;2023-01-15T03:22:08;95535.94;;;7.83;100.00
36598;BME280;22607;49.550;11.940;2023-01-15T03:27:06;95527.81;;;8.00;100.00
36598;BME280;22607;49.550;11.940;2023-01-15T03:29:35;95520.47;;;7.67;100.00
36598;BME280;22607;49.550;11.940;2023-01-15T03:32:03;95523.34;;;7.72;100.00
36598;BME280;22607;49.550;11.940;2023-01-15T03:34:32;95523.09;;;7.45;100.00
36598;BME280;22607;49.550;11.940;2023-01-15T03:37:00;95519.22;;;7.62;100.00
36598;BME280;22607;49.550;11.940;2023-01-15T03:39:27;95507.06;;;7.92;100.00
36598;BME280;22607;49.550;11.940;2023-01-15T03:42:13;95516.25;;;7.87;100.00
36598;BME280;22607;49.550;11.940;2023-01-15T03:44:51;95509.22;;;7.66;100.00
36598;BME280;22607;49.550;11.940;2023-01-15T03:50:01;95510.63;;;7.47;100.00
36598;BME280;22607;49.550;11.940;2023-01-15T03:52:36;95511.44;;;7.69;100.00
36598;BME280;22607;49.550;11.940;2023-01-15T03:57:35;95515.44;;;7.65;100.00
36598;BME280;22607;49.550;11.940;2023-01-15T04:00:06;95506.16;;;7.41;100.00
36598;BME280;22607;49.550;11.940;2023-01-15T04:02:34;95497.09;;;7.21;100.00
36598;BME280;22607;49.550;11.940;2023-01-15T04:05:01;95494.69;;;7.20;100.00
36598;BME280;22607;49.550;11.940;2023-01-15T04:07:28;95493.81;;;7.34;100.00
36598;BME280;22607;49.550;11.940;2023-01-15T04:09:55;95489.75;;;7.47;100.00
36598;BME280;22607;49.550;11.940;2023-01-15T04:12:22;95500.19;;;7.47;100.00
36598;BME280;22607;49.550;11.940;2023-01-15T04:14:49;95493.31;;;7.24;100.00
36598;BME280;22607;49.550;11.940;2023-01-15T04:17:15;95489.09;;;7.23;100.00
36598;BME280;22607;49.550;11.940;2023-01-15T04:19:41;95487.91;;;7.26;100.00
36598;BME280;22607;49.550;11.940;2023-01-15T04:22:10;95492.47;;;7.39;100.00
36598;BME280;22607;49.550;11.940;2023-01-15T04:24:38;95485.13;;;7.27;100.00
36598;BME280;22607;49.550;11.940;2023-01-15T04:27:05;95479.91;;;7.27;100.00
36598;BME280;22607;49.550;11.940;2023-01-15T04:29:31;95482.88;;;7.24;100.00
36598;BME280;22607;49.550;11.940;2023-01-15T04:31:57;95472.25;;;7.26;100.00
36598;BME280;22607;49.550;11.940;2023-01-15T04:34:25;95486.38;;;7.31;100.00
36598;BME280;22607;49.550;11.940;2023-01-15T04:36:52;95471.44;;;7.25;100.00
36598;BME280;22607;49.550;11.940;2023-01-15T04:39:24;95472.69;;;7.29;100.00
36598;BME280;22607;49.550;11.940;2023-01-15T04:41:51;95471.97;;;7.35;100.00
36598;BME280;22607;49.550;11.940;2023-01-15T04:44:36;95467.84;;;7.26;100.00
36598;BME280;22607;49.550;11.940;2023-01-15T04:47:03;95464.41;;;7.69;100.00
36598;BME280;22607;49.550;11.940;2023-01-15T04:49:29;95465.16;;;7.19;100.00
36598;BME280;22607;49.550;11.940;2023-01-15T04:51:56;95462.56;;;7.19;100.00
36598;BME280;22607;49.550;11.940;2023-01-15T04:54:22;95455.97;;;7.45;100.00
36598;BME280;22607;49.550;11.940;2023-01-15T04:56:49;95463.59;;;7.25;100.00
36598;BME280;22607;49.550;11.940;2023-01-15T04:59:17;95456.50;;;7.19;100.00
36598;BME280;22607;49.550;11.940;2023-01-15T05:01:44;95452.28;;;7.18;100.00
36598;BME280;22607;49.550;11.940;2023-01-15T05:04:27;95457.31;;;7.19;100.00
36598;BME280;22607;49.550;11.940;2023-01-15T05:06:54;95452.09;;;7.19;100.00
36598;BME280;22607;49.550;11.940;2023-01-15T05:09:20;95448.50;;;7.20;100.00
36598;BME280;22607;49.550;11.940;2023-01-15T05:11:46;95442.84;;;7.39;100.00
36598;BME280;22607;49.550;11.940;2023-01-15T05:14:14;95449.28;;;7.21;100.00
36598;BME280;22607;49.550;11.940;2023-01-15T05:16:40;95443.69;;;7.24;100.00
36598;BME280;22607;49.550;11.940;2023-01-15T05:19:06;95433.25;;;7.68;100.00
36598;BME280;22607;49.550;11.940;2023-01-15T05:21:34;95432.81;;;7.20;100.00
36598;BME280;22607;49.550;11.940;2023-01-15T05:24:02;95420.75;;;7.41;100.00
36598;BME280;22607;49.550;11.940;2023-01-15T05:26:30;95426.66;;;7.28;100.00
36598;BME280;22607;49.550;11.940;2023-01-15T05:28:57;95420.00;;;7.69;100.00
36598;BME280;22607;49.550;11.940;2023-01-15T05:31:24;95421.25;;;7.30;100.00
36598;BME280;22607;49.550;11.940;2023-01-15T05:33:51;95412.38;;;7.24;100.00
36598;BME280;22607;49.550;11.940;2023-01-15T05:36:20;95411.72;;;7.00;100.00
36598;BME280;22607;49.550;11.940;2023-01-15T05:38:47;95391.78;;;7.58;100.00
36598;BME280;22607;49.550;11.940;2023-01-15T05:41:14;95407.25;;;7.59;100.00
36598;BME280;22607;49.550;11.940;2023-01-15T05:44:02;95398.81;;;7.35;100.00
36598;BME280;22607;49.550;11.940;2023-01-15T05:46:29;95406.31;;;7.23;100.00
36598;BME280;22607;49.550;11.940;2023-01-15T05:48:59;95404.41;;;7.32;100.00
36598;BME280;22607;49.550;11.940;2023-01-15T05:51:26;95392.28;;;7.25;100.00
36598;BME280;22607;49.550;11.940;2023-01-15T05:53:52;95388.91;;;7.31;100.00
36598;BME280;22607;49.550;11.940;2023-01-15T05:56:19;95388.16;;;7.59;100.00
36598;BME280;22607;49.550;11.940;2023-01-15T05:58:45;95390.84;;;7.44;100.00
36598;BME280;22607;49.550;11.940;2023-01-15T06:01:12;95385.50;;;7.52;100.00
36598;BME280;22607;49.550;11.940;2023-01-15T06:03:38;95386.38;;;7.38;100.00
36598;BME280;22607;49.550;11.940;2023-01-15T06:06:09;95385.88;;;7.27;100.00
36598;BME280;22607;49.550;11.940;2023-01-15T06:08:37;95382.94;;;7.59;100.00
36598;BME280;22607;49.550;11.940;2023-01-15T06:11:04;95372.25;;;7.54;100.00
36598;BME280;22607;49.550;11.940;2023-01-15T06:13:32;95382.38;;;7.42;100.00
36598;BME280;22607;49.550;11.940;2023-01-15T06:15:59;95375.81;;;7.46;100.00
36598;BME280;22607;49.550;11.940;2023-01-15T06:18:25;95382.03;;;7.45;100.00
36598;BME280;22607;49.550;11.940;2023-01-15T06:20:52;95380.03;;;7.47;100.00
36598;BME280;22607;49.550;11.940;2023-01-15T06:23:19;95388.47;;;7.49;100.00
36598;BME280;22607;49.550;11.940;2023-01-15T06:25:45;95387.19;;;7.38;100.00
36598;BME280;22607;49.550;11.940;2023-01-15T06:28:11;95384.94;;;7.57;100.00
36598;BME280;22607;49.550;11.940;2023-01-15T06:30:39;95382.50;;;7.33;100.00
36598;BME280;22607;49.550;11.940;2023-01-15T06:33:05;95379.91;;;7.33;100.00
36598;BME280;22607;49.550;11.940;2023-01-15T06:35:40;95384.47;;;7.53;100.00
36598;BME280;22607;49.550;11.940;2023-01-15T06:38:07;95383.47;;;7.26;100.00
36598;BME280;22607;49.550;11.940;2023-01-15T06:40:33;95388.56;;;7.62;100.00
36598;BME280;22607;49.550;11.940;2023-01-15T06:42:59;95376.63;;;7.25;100.00
36598;BME280;22607;49.550;11.940;2023-01-15T06:45:44;95365.06;;;7.34;100.00
36598;BME280;22607;49.550;11.940;2023-01-15T06:48:34;95379.16;;;7.18;100.00
36598;BME280;22607;49.550;11.940;2023-01-15T06:51:01;95378.22;;;7.76;100.00
36598;BME280;22607;49.550;11.940;2023-01-15T06:53:27;95376.50;;;7.61;100.00
36598;BME280;22607;49.550;11.940;2023-01-15T06:55:54;95370.00;;;7.51;100.00
36598;BME280;22607;49.550;11.940;2023-01-15T06:58:20;95377.09;;;7.35;100.00
36598;BME280;22607;49.550;11.940;2023-01-15T07:00:49;95375.31;;;7.35;100.00
36598;BME280;22607;49.550;11.940;2023-01-15T07:03:22;95373.44;;;7.29;100.00
36598;BME280;22607;49.550;11.940;2023-01-15T07:05:48;95367.91;;;7.68;100.00
36598;BME280;22607;49.550;11.940;2023-01-15T07:08:15;95367.84;;;7.32;100.00
36598;BME280;22607;49.550;11.940;2023-01-15T07:10:42;95363.59;;;7.53;100.00
36598;BME280;22607;49.550;11.940;2023-01-15T07:13:08;95375.16;;;7.44;100.00
36598;BME280;22607;49.550;11.940;2023-01-15T07:15:36;95377.94;;;7.35;100.00
36598;BME280;22607;49.550;11.940;2023-01-15T07:18:03;95369.69;;;7.39;100.00
36598;BME280;22607;49.550;11.940;2023-01-15T07:20:30;95377.41;;;7.25;100.00
36598;BME280;22607;49.550;11.940;2023-01-15T07:22:56;95369.16;;;7.43;100.00
36598;BME280;22607;49.550;11.940;2023-01-15T07:25:23;95370.00;;;7.51;100.00
36598;BME280;22607;49.550;11.940;2023-01-15T07:27:49;95374.78;;;7.47;100.00
36598;BME280;22607;49.550;11.940;2023-01-15T07:30:16;95364.72;;;7.44;100.00
36598;BME280;22607;49.550;11.940;2023-01-15T07:32:42;95370.28;;;7.34;100.00
36598;BME280;22607;49.550;11.940;2023-01-15T07:35:08;95383.56;;;7.39;100.00
36598;BME280;22607;49.550;11.940;2023-01-15T07:37:35;95384.94;;;7.35;100.00
36598;BME280;22607;49.550;11.940;2023-01-15T07:40:03;95382.81;;;7.45;100.00
36598;BME280;22607;49.550;11.940;2023-01-15T07:42:29;95392.41;;;7.38;100.00
36598;BME280;22607;49.550;11.940;2023-01-15T07:45:22;95390.72;;;7.52;100.00
36598;BME280;22607;49.550;11.940;2023-01-15T07:48:08;95398.13;;;7.48;100.00
36598;BME280;22607;49.550;11.940;2023-01-15T07:50:54;95397.13;;;7.49;100.00
36598;BME280;22607;49.550;11.940;2023-01-15T07:53:20;95404.72;;;7.44;100.00
36598;BME280;22607;49.550;11.940;2023-01-15T07:55:47;95411.00;;;7.50;100.00
36598;BME280;22607;49.550;11.940;2023-01-15T07:58:19;95411.00;;;7.50;100.00
36598;BME280;22607;49.550;11.940;2023-01-15T08:00:45;95415.59;;;7.48;100.00
36598;BME280;22607;49.550;11.940;2023-01-15T08:03:12;95425.31;;;7.32;100.00
36598;BME280;22607;49.550;11.940;2023-01-15T08:05:38;95443.47;;;7.41;100.00
36598;BME280;22607;49.550;11.940;2023-01-15T08:08:04;95447.81;;;7.33;100.00
36598;BME280;22607;49.550;11.940;2023-01-15T08:10:31;95451.03;;;7.14;100.00
36598;BME280;22607;49.550;11.940;2023-01-15T08:12:57;95451.84;;;7.36;100.00
36598;BME280;22607;49.550;11.940;2023-01-15T08:15:56;95438.25;;;7.41;100.00
36598;BME280;22607;49.550;11.940;2023-01-15T08:18:22;95430.03;;;7.66;100.00
36598;BME280;22607;49.550;11.940;2023-01-15T08:20:48;95426.88;;;7.77;100.00
36598;BME280;22607;49.550;11.940;2023-01-15T08:23:15;95431.75;;;7.80;100.00
36598;BME280;22607;49.550;11.940;2023-01-15T08:25:42;95442.19;;;7.80;100.00
36598;BME280;22607;49.550;11.940;2023-01-15T08:28:09;95450.41;;;7.77;100.00
36598;BME280;22607;49.550;11.940;2023-01-15T08:30:39;95454.06;;;7.83;100.00
36598;BME280;22607;49.550;11.940;2023-01-15T08:33:05;95456.88;;;7.81;100.00
36598;BME280;22607;49.550;11.940;2023-01-15T08:35:31;95466.97;;;7.84;100.00
36598;BME280;22607;49.550;11.940;2023-01-15T08:38:11;95466.97;;;7.84;100.00
36598;BME280;22607;49.550;11.940;2023-01-15T08:40:38;95476.81;;;7.82;100.00
36598;BME280;22607;49.550;11.940;2023-01-15T08:43:24;95484.00;;;7.80;100.00
36598;BME280;22607;49.550;11.940;2023-01-15T08:45:51;95482.59;;;7.78;100.00
36598;BME280;22607;49.550;11.940;2023-01-15T08:48:18;95483.25;;;7.86;100.00
36598;BME280;22607;49.550;11.940;2023-01-15T08:50:45;95490.34;;;7.93;100.00
36598;BME280;22607;49.550;11.940;2023-01-15T08:53:12;95496.97;;;7.67;100.00
36598;BME280;22607;49.550;11.940;2023-01-15T08:55:38;95492.44;;;7.75;100.00
36598;BME280;22607;49.550;11.940;2023-01-15T08:58:06;95504.31;;;7.78;100.00
36598;BME280;22607;49.550;11.940;2023-01-15T09:00:32;95501.13;;;7.83;100.00
36598;BME280;22607;49.550;11.940;2023-01-15T09:03:01;95504.44;;;7.92;100.00
36598;BME280;22607;49.550;11.940;2023-01-15T09:05:28;95510.25;;;8.16;100.00
36598;BME280;22607;49.550;11.940;2023-01-15T09:07:54;95520.31;;;8.19;100.00
36598;BME280;22607;49.550;11.940;2023-01-15T09:10:21;95524.06;;;8.09;100.00
36598;BME280;22607;49.550;11.940;2023-01-15T09:12:48;95535.41;;;7.95;100.00
36598;BME280;22607;49.550;11.940;2023-01-15T09:15:15;95551.03;;;7.88;100.00
36598;BME280;22607;49.550;11.940;2023-01-15T09:17:45;95558.09;;;7.87;100.00
36598;BME280;22607;49.550;11.940;2023-01-15T09:20:11;95567.34;;;7.68;100.00
36598;BME280;22607;49.550;11.940;2023-01-15T09:22:38;95575.69;;;7.79;100.00
36598;BME280;22607;49.550;11.940;2023-01-15T09:25:07;95582.75;;;7.63;100.00
36598;BME280;22607;49.550;11.940;2023-01-15T09:27:33;95587.81;;;7.65;100.00
36598;BME280;22607;49.550;11.940;2023-01-15T09:30:00;95585.91;;;7.58;100.00
36598;BME280;22607;49.550;11.940;2023-01-15T09:32:26;95585.41;;;7.48;100.00
36598;BME280;22607;49.550;11.940;2023-01-15T09:34:53;95594.75;;;7.57;100.00
36598;BME280;22607;49.550;11.940;2023-01-15T09:37:19;95601.81;;;7.42;100.00
36598;BME280;22607;49.550;11.940;2023-01-15T09:39:45;95600.38;;;7.24;100.00
36598;BME280;22607;49.550;11.940;2023-01-15T09:45:00;95599.84;;;7.29;100.00
36598;BME280;22607;49.550;11.940;2023-01-15T09:47:52;95614.44;;;7.23;100.00
36598;BME280;22607;49.550;11.940;2023-01-15T09:55:47;95628.84;;;7.19;100.00
36598;BME280;22607;49.550;11.940;2023-01-15T09:58:16;95627.66;;;7.06;100.00
36598;BME280;22607;49.550;11.940;2023-01-15T10:00:44;95621.53;;;7.14;100.00
36598;BME280;22607;49.550;11.940;2023-01-15T10:06:01;95632.97;;;7.13;100.00
36598;BME280;22607;49.550;11.940;2023-01-15T10:08:45;95638.84;;;7.15;100.00
36598;BME280;22607;49.550;11.940;2023-01-15T10:16:31;95640.72;;;7.06;100.00
36598;BME280;22607;49.550;11.940;2023-01-15T10:19:01;95645.25;;;7.13;100.00
36598;BME280;22607;49.550;11.940;2023-01-15T10:24:04;95633.06;;;7.20;100.00
36598;BME280;22607;49.550;11.940;2023-01-15T10:26:34;95647.66;;;7.14;100.00
36598;BME280;22607;49.550;11.940;2023-01-15T10:29:03;95651.72;;;7.02;100.00
36598;BME280;22607;49.550;11.940;2023-01-15T10:31:35;95656.47;;;7.13;100.00
36598;BME280;22607;49.550;11.940;2023-01-15T10:34:23;95654.03;;;7.12;100.00
36598;BME280;22607;49.550;11.940;2023-01-15T10:36:55;95653.69;;;7.15;100.00
36598;BME280;22607;49.550;11.940;2023-01-15T10:39:28;95653.69;;;6.85;100.00
36598;BME280;22607;49.550;11.940;2023-01-15T10:41:58;95647.13;;;7.04;100.00
36598;BME280;22607;49.550;11.940;2023-01-15T10:44:27;95649.13;;;7.17;100.00
36598;BME280;22607;49.550;11.940;2023-01-15T10:47:02;95664.22;;;7.06;100.00
36598;BME280;22607;49.550;11.940;2023-01-15T10:49:30;95680.84;;;6.75;100.00
36598;BME280;22607;49.550;11.940;2023-01-15T10:54:43;95679.19;;;6.74;100.00
36598;BME280;22607;49.550;11.940;2023-01-15T10:59:58;95697.94;;;6.93;100.00
36598;BME280;22607;49.550;11.940;2023-01-15T11:05:01;95709.22;;;6.55;100.00
36598;BME280;22607;49.550;11.940;2023-01-15T11:07:40;95723.75;;;6.73;100.00
36598;BME280;22607;49.550;11.940;2023-01-15T11:10:27;95721.59;;;6.76;100.00
36598;BME280;22607;49.550;11.940;2023-01-15T11:12:54;95712.84;;;6.69;100.00
36598;BME280;22607;49.550;11.940;2023-01-15T11:15:40;95723.16;;;6.86;100.00
36598;BME280;22607;49.550;11.940;2023-01-15T11:18:34;95732.78;;;6.85;100.00
36598;BME280;22607;49.550;11.940;2023-01-15T11:21:21;95718.53;;;6.73;100.00
36598;BME280;22607;49.550;11.940;2023-01-15T11:23:48;95726.09;;;6.82;100.00
36598;BME280;22607;49.550;11.940;2023-01-15T11:26:22;95726.66;;;6.78;100.00
36598;BME280;22607;49.550;11.940;2023-01-15T11:28:50;95724.59;;;6.65;100.00
36598;BME280;22607;49.550;11.940;2023-01-15T11:31:17;95751.69;;;6.64;100.00
36598;BME280;22607;49.550;11.940;2023-01-15T11:33:53;95751.06;;;6.62;100.00
36598;BME280;22607;49.550;11.940;2023-01-15T11:36:24;95743.88;;;6.64;100.00
36598;BME280;22607;49.550;11.940;2023-01-15T11:38:51;95739.47;;;6.64;100.00
36598;BME280;22607;49.550;11.940;2023-01-15T11:41:19;95737.13;;;6.46;100.00
36598;BME280;22607;49.550;11.940;2023-01-15T11:43:54;95729.38;;;6.61;100.00
36598;BME280;22607;49.550;11.940;2023-01-15T11:46:39;95731.81;;;6.63;100.00
36598;BME280;22607;49.550;11.940;2023-01-15T11:49:24;95737.47;;;6.66;100.00
36598;BME280;22607;49.550;11.940;2023-01-15T11:52:11;95735.00;;;6.73;100.00
36598;BME280;22607;49.550;11.940;2023-01-15T11:54:40;95755.34;;;6.54;100.00
36598;BME280;22607;49.550;11.940;2023-01-15T11:57:07;95771.91;;;6.38;100.00
36598;BME280;22607;49.550;11.940;2023-01-15T11:59:34;95771.69;;;6.48;100.00
36598;BME280;22607;49.550;11.940;2023-01-15T12:05:21;95760.97;;;6.43;100.00
36598;BME280;22607;49.550;11.940;2023-01-15T12:07:53;95755.84;;;6.26;100.00
36598;BME280;22607;49.550;11.940;2023-01-15T12:10:24;95746.91;;;6.21;100.00
36598;BME280;22607;49.550;11.940;2023-01-15T12:31:31;95773.72;;;5.98;100.00
36598;BME280;22607;49.550;11.940;2023-01-15T12:34:20;95778.66;;;5.84;100.00
36598;BME280;22607;49.550;11.940;2023-01-15T12:36:53;95781.53;;;5.98;100.00
36598;BME280;22607;49.550;11.940;2023-01-15T12:42:00;95784.41;;;6.11;100.00
36598;BME280;22607;49.550;11.940;2023-01-15T12:44:47;95800.44;;;5.91;100.00
36598;BME280;22607;49.550;11.940;2023-01-15T12:47:42;95802.91;;;5.85;100.00
36598;BME280;22607;49.550;11.940;2023-01-15T12:52:42;95801.22;;;6.09;100.00
36598;BME280;22607;49.550;11.940;2023-01-15T12:55:15;95799.59;;;6.08;100.00
36598;BME280;22607;49.550;11.940;2023-01-15T12:57:48;95798.94;;;5.97;100.00
36598;BME280;22607;49.550;11.940;2023-01-15T13:06:09;95816.91;;;5.84;100.00
36598;BME280;22607;49.550;11.940;2023-01-15T13:10:54;95841.69;;;5.80;100.00
36598;BME280;22607;49.550;11.940;2023-01-15T13:13:25;95853.75;;;5.72;100.00
36598;BME280;22607;49.550;11.940;2023-01-15T13:15:57;95857.16;;;5.64;100.00
36598;BME280;22607;49.550;11.940;2023-01-15T13:20:51;95857.94;;;5.90;100.00
36598;BME280;22607;49.550;11.940;2023-01-15T13:33:54;95884.53;;;5.60;100.00
36598;BME280;22607;49.550;11.940;2023-01-15T13:38:52;95899.03;;;5.55;100.00
36598;BME280;22607;49.550;11.940;2023-01-15T13:41:20;95889.56;;;5.70;100.00
36598;BME280;22607;49.550;11.940;2023-01-15T13:44:15;95894.16;;;5.68;100.00
36598;BME280;22607;49.550;11.940;2023-01-15T13:46:43;95886.97;;;5.70;100.00
36598;BME280;22607;49.550;11.940;2023-01-15T13:49:15;95903.91;;;5.66;100.00
36598;BME280;22607;49.550;11.940;2023-01-15T13:51:45;95905.88;;;5.56;100.00
36598;BME280;22607;49.550;11.940;2023-01-15T13:54:14;95904.06;;;5.31;100.00
36598;BME280;22607;49.550;11.940;2023-01-15T13:56:42;95907.16;;;5.43;100.00
36598;BME280;22607;49.550;11.940;2023-01-15T14:01:55;95918.22;;;5.37;100.00
36598;BME280;22607;49.550;11.940;2023-01-15T14:04:44;95922.59;;;5.36;100.00
36598;BME280;22607;49.550;11.940;2023-01-15T14:07:17;95923.06;;;5.15;100.00
36598;BME280;22607;49.550;11.940;2023-01-15T14:09:43;95942.28;;;5.14;100.00
36598;BME280;22607;49.550;11.940;2023-01-15T14:12:35;95950.44;;;5.28;100.00
36598;BME280;22607;49.550;11.940;2023-01-15T14:20:20;95958.94;;;4.78;100.00
36598;BME280;22607;49.550;11.940;2023-01-15T14:22:55;95966.59;;;4.80;100.00
36598;BME280;22607;49.550;11.940;2023-01-15T14:25:28;95975.34;;;4.70;100.00
36598;BME280;22607;49.550;11.940;2023-01-15T14:33:22;95987.25;;;4.81;100.00
36598;BME280;22607;49.550;11.940;2023-01-15T14:35:51;95991.63;;;4.81;100.00
36598;BME280;22607;49.550;11.940;2023-01-15T14:38:19;95998.78;;;4.79;100.00
36598;BME280;22607;49.550;11.940;2023-01-15T14:40:57;95998.75;;;4.70;100.00
36598;BME280;22607;49.550;11.940;2023-01-15T14:43:28;96011.75;;;4.70;100.00
36598;BME280;22607;49.550;11.940;2023-01-15T14:46:10;96013.28;;;4.81;100.00
36598;BME280;22607;49.550;11.940;2023-01-15T14:48:38;96016.06;;;4.53;100.00
36598;BME280;22607;49.550;11.940;2023-01-15T14:53:50;96005.28;;;4.22;100.00